createdAt,value
2023-05-05T00:01:04.605Z,17.63
2023-05-05T00:03:30.823Z,17.64
2023-05-05T00:05:56.988Z,17.63
2023-05-05T00:08:23.078Z,17.63
2023-05-05T00:10:49.268Z,17.63
2023-05-05T00:13:15.513Z,17.63
2023-05-05T00:15:41.686Z,17.63
2023-05-05T00:18:07.949Z,17.62
2023-05-05T00:20:34.121Z,17.62
2023-05-05T00:23:00.227Z,17.63
2023-05-05T00:25:26.515Z,17.62
2023-05-05T00:27:52.690Z,17.62
2023-05-05T00:30:18.996Z,17.62
2023-05-05T00:32:45.201Z,17.62
2023-05-05T00:35:11.444Z,17.61
2023-05-05T00:37:37.738Z,17.62
2023-05-05T00:40:04.073Z,17.62
2023-05-05T00:42:30.389Z,17.62
2023-05-05T00:44:56.935Z,17.61
2023-05-05T00:47:23.153Z,17.62
2023-05-05T00:49:49.244Z,17.61
2023-05-05T00:52:15.431Z,17.61
2023-05-05T00:54:41.557Z,17.62
2023-05-05T00:57:07.654Z,17.61
2023-05-05T00:59:33.773Z,17.61
2023-05-05T01:01:59.983Z,17.62
2023-05-05T01:04:26.120Z,17.62
2023-05-05T01:06:52.215Z,17.62
2023-05-05T01:09:18.345Z,17.61
2023-05-05T01:11:44.439Z,17.62
2023-05-05T01:14:10.580Z,17.61
2023-05-05T01:16:36.774Z,17.61
2023-05-05T01:19:02.970Z,17.62
2023-05-05T01:21:29.072Z,17.61
2023-05-05T01:23:55.684Z,17.61
2023-05-05T01:26:21.790Z,17.61
2023-05-05T01:28:47.897Z,17.61
2023-05-05T01:31:14.129Z,17.61
2023-05-05T01:33:40.282Z,17.61
2023-05-05T01:36:06.455Z,17.61
2023-05-05T01:38:32.562Z,17.60
2023-05-05T01:40:58.654Z,17.60
2023-05-05T01:43:24.760Z,17.60
2023-05-05T01:45:50.910Z,17.60
2023-05-05T01:48:17.040Z,17.60
2023-05-05T01:50:43.149Z,17.61
2023-05-05T01:53:09.255Z,17.61
2023-05-05T01:55:35.362Z,17.61
2023-05-05T01:58:01.460Z,17.60
2023-05-05T02:00:28.070Z,17.60
2023-05-05T02:02:54.313Z,17.60
2023-05-05T02:05:20.467Z,17.60
2023-05-05T02:07:46.662Z,17.60
2023-05-05T02:10:12.772Z,17.60
2023-05-05T02:12:39.116Z,17.59
2023-05-05T02:15:05.669Z,17.60
2023-05-05T02:17:31.930Z,17.60
2023-05-05T02:19:58.082Z,17.60
2023-05-05T02:22:24.394Z,17.59
2023-05-05T02:24:50.617Z,17.60
2023-05-05T02:27:16.809Z,17.60
2023-05-05T02:29:43.138Z,17.60
2023-05-05T02:32:09.369Z,17.60
2023-05-05T02:34:35.615Z,17.60
2023-05-05T02:37:02.349Z,17.61
2023-05-05T02:39:28.540Z,17.60
2023-05-05T02:41:54.821Z,17.60
2023-05-05T02:44:21.086Z,17.60
2023-05-05T02:46:47.449Z,17.60
2023-05-05T02:49:13.850Z,17.60
2023-05-05T02:51:40.062Z,17.60
2023-05-05T02:54:06.561Z,17.59
2023-05-05T02:56:32.816Z,17.60
2023-05-05T02:58:59.074Z,17.60
2023-05-05T03:01:25.260Z,17.60
2023-05-05T03:03:51.499Z,17.60
2023-05-05T03:06:18.219Z,17.59
2023-05-05T03:08:44.505Z,17.58
2023-05-05T03:11:10.683Z,17.60
2023-05-05T03:13:36.917Z,17.59
2023-05-05T03:16:03.405Z,17.59
2023-05-05T03:18:30.064Z,17.60
2023-05-05T03:20:56.573Z,17.59
2023-05-05T03:23:22.958Z,17.60
2023-05-05T03:25:49.342Z,17.59
2023-05-05T03:28:15.599Z,17.59
2023-05-05T03:30:41.979Z,17.58
2023-05-05T03:33:08.415Z,17.58
2023-05-05T03:35:35.053Z,17.59
2023-05-05T03:38:01.432Z,17.59
2023-05-05T03:40:40.300Z,17.60
2023-05-05T03:43:07.012Z,17.60
2023-05-05T03:45:33.443Z,17.58
2023-05-05T03:47:59.736Z,17.57
2023-05-05T03:50:25.994Z,17.59
2023-05-05T03:52:52.296Z,17.58
2023-05-05T03:55:18.570Z,17.58
2023-05-05T03:57:44.911Z,17.57
2023-05-05T04:00:11.164Z,17.57
2023-05-05T04:02:37.500Z,17.57
2023-05-05T04:05:03.916Z,17.57
2023-05-05T04:07:30.097Z,17.56
2023-05-05T04:09:56.323Z,17.57
2023-05-05T04:12:22.844Z,17.56
2023-05-05T04:14:49.072Z,17.56
2023-05-05T04:17:15.323Z,17.57
2023-05-05T04:19:41.741Z,17.56
2023-05-05T04:22:08.004Z,17.56
2023-05-05T04:24:34.331Z,17.56
2023-05-05T04:27:00.779Z,17.56
2023-05-05T04:29:27.021Z,17.57
2023-05-05T04:31:53.321Z,17.57
2023-05-05T04:34:19.854Z,17.57
2023-05-05T04:36:46.127Z,17.58
2023-05-05T04:39:12.302Z,17.57
2023-05-05T04:41:38.686Z,17.57
2023-05-05T04:44:04.859Z,17.56
2023-05-05T04:46:31.129Z,17.57
2023-05-05T04:48:57.390Z,17.57
2023-05-05T04:51:23.480Z,17.57
2023-05-05T04:53:49.614Z,17.56
2023-05-05T04:56:15.753Z,17.57
2023-05-05T04:58:41.857Z,17.56
2023-05-05T05:01:07.993Z,17.56
2023-05-05T05:03:34.194Z,17.56
2023-05-05T05:06:00.384Z,17.56
2023-05-05T05:08:26.483Z,17.56
2023-05-05T05:10:52.708Z,17.56
2023-05-05T05:13:18.887Z,17.57
2023-05-05T05:15:45.014Z,17.55
2023-05-05T05:18:11.126Z,17.55
2023-05-05T05:20:37.227Z,17.56
2023-05-05T05:23:03.438Z,17.56
2023-05-05T05:25:29.587Z,17.56
2023-05-05T05:30:28.271Z,17.56
2023-05-05T05:32:54.422Z,17.55
2023-05-05T05:35:20.557Z,17.56
2023-05-05T05:37:46.661Z,17.56
2023-05-05T05:40:12.774Z,17.56
2023-05-05T05:42:38.890Z,17.56
2023-05-05T05:45:04.981Z,17.56
2023-05-05T05:47:31.256Z,17.57
2023-05-05T05:49:57.365Z,17.57
2023-05-05T05:52:23.470Z,17.55
2023-05-05T05:54:49.607Z,17.55
2023-05-05T05:57:15.736Z,17.56
2023-05-05T05:59:41.877Z,17.57
2023-05-05T06:02:08.049Z,17.56
2023-05-05T06:04:34.265Z,17.57
2023-05-05T06:07:00.603Z,17.55
2023-05-05T06:09:26.917Z,17.54
2023-05-05T06:11:53.351Z,17.55
2023-05-05T06:14:20.151Z,17.54
2023-05-05T06:16:46.554Z,17.54
2023-05-05T06:19:12.824Z,17.55
2023-05-05T06:21:39.011Z,17.56
2023-05-05T06:24:05.149Z,17.55
2023-05-05T06:26:31.495Z,17.55
2023-05-05T06:28:57.776Z,17.54
2023-05-05T06:31:24.090Z,17.55
2023-05-05T06:33:50.402Z,17.55
2023-05-05T06:36:16.686Z,17.55
2023-05-05T06:38:45.094Z,17.54
2023-05-05T06:41:11.405Z,17.55
2023-05-05T06:43:37.910Z,17.54
2023-05-05T06:46:04.218Z,17.55
2023-05-05T06:48:30.322Z,17.55
2023-05-05T06:50:56.410Z,17.54
2023-05-05T06:53:22.543Z,17.55
2023-05-05T06:55:48.643Z,17.55
2023-05-05T06:58:14.727Z,17.55
2023-05-05T07:00:40.933Z,17.55
2023-05-05T07:03:07.127Z,17.54
2023-05-05T07:05:33.302Z,17.54
2023-05-05T07:07:59.429Z,17.55
2023-05-05T07:10:25.528Z,17.54
2023-05-05T07:12:51.650Z,17.55
2023-05-05T07:15:27.384Z,17.55
2023-05-05T07:17:55.143Z,17.56
2023-05-05T07:20:21.264Z,17.55
2023-05-05T07:22:47.372Z,17.56
2023-05-05T07:25:13.472Z,17.56
2023-05-05T07:27:39.604Z,17.56
2023-05-05T07:30:10.039Z,17.56
2023-05-05T07:32:38.665Z,17.56
2023-05-05T07:35:04.798Z,17.56
2023-05-05T07:37:30.910Z,17.56
2023-05-05T07:39:57.013Z,17.56
2023-05-05T07:42:23.146Z,17.56
2023-05-05T07:44:49.252Z,17.55
2023-05-05T07:47:15.353Z,17.56
2023-05-05T07:49:41.467Z,17.56
2023-05-05T07:52:07.575Z,17.57
2023-05-05T07:54:33.701Z,17.57
2023-05-05T07:56:59.825Z,17.57
2023-05-05T07:59:26.235Z,17.57
2023-05-05T08:01:54.303Z,17.58
2023-05-05T08:04:21.046Z,17.57
2023-05-05T08:06:47.172Z,17.57
2023-05-05T08:09:13.286Z,17.59
2023-05-05T08:11:39.422Z,17.59
2023-05-05T08:14:05.617Z,17.58
2023-05-05T08:16:31.913Z,17.59
2023-05-05T08:18:58.230Z,17.59
2023-05-05T08:21:24.342Z,17.60
2023-05-05T08:23:50.431Z,17.59
2023-05-05T08:26:16.557Z,17.59
2023-05-05T08:28:42.654Z,17.60
2023-05-05T08:31:08.786Z,17.60
2023-05-05T08:33:34.931Z,17.59
2023-05-05T08:36:01.049Z,17.60
2023-05-05T08:38:27.163Z,17.60
2023-05-05T08:40:53.418Z,17.61
2023-05-05T08:43:19.508Z,17.61
2023-05-05T08:45:45.594Z,17.62
2023-05-05T08:48:11.810Z,17.62
2023-05-05T08:50:37.990Z,17.61
2023-05-05T08:53:04.092Z,17.62
2023-05-05T08:55:30.719Z,17.62
2023-05-05T08:57:56.817Z,17.62
2023-05-05T09:00:23.005Z,17.62
2023-05-05T09:02:49.256Z,17.63
2023-05-05T09:05:15.432Z,17.63
2023-05-05T09:07:41.534Z,17.63
2023-05-05T09:10:07.661Z,17.64
2023-05-05T09:12:33.824Z,17.63
2023-05-05T09:14:59.956Z,17.64
2023-05-05T09:17:26.126Z,17.64
2023-05-05T09:19:52.306Z,17.64
2023-05-05T09:22:18.422Z,17.64
2023-05-05T09:24:44.544Z,17.65
2023-05-05T09:27:10.624Z,17.66
2023-05-05T09:29:36.756Z,17.66
2023-05-05T09:32:02.883Z,17.65
2023-05-05T09:34:29.022Z,17.67
2023-05-05T09:36:55.118Z,17.66
2023-05-05T09:39:21.234Z,17.68
2023-05-05T09:41:47.327Z,17.68
2023-05-05T09:44:13.432Z,17.68
2023-05-05T09:46:39.620Z,17.68
2023-05-05T09:49:05.742Z,17.69
2023-05-05T09:51:31.853Z,17.68
2023-05-05T09:53:57.962Z,17.70
2023-05-05T09:56:24.050Z,17.70
2023-05-05T09:58:50.136Z,17.71
2023-05-05T10:01:16.349Z,17.71
2023-05-05T10:03:42.487Z,17.72
2023-05-05T10:06:08.906Z,17.71
2023-05-05T10:08:35.027Z,17.74
2023-05-05T10:11:01.180Z,17.74
2023-05-05T10:13:32.015Z,17.76
2023-05-05T10:15:58.218Z,17.74
2023-05-05T10:18:24.462Z,17.74
2023-05-05T10:20:50.605Z,17.76
2023-05-05T10:23:16.799Z,17.77
2023-05-05T10:25:42.922Z,17.76
2023-05-05T10:28:09.043Z,17.77
2023-05-05T10:30:35.189Z,17.77
2023-05-05T10:33:14.091Z,17.77
2023-05-05T10:35:47.374Z,17.78
2023-05-05T10:38:13.485Z,17.77
2023-05-05T10:40:39.588Z,17.79
2023-05-05T10:43:05.771Z,17.78
2023-05-05T10:45:32.163Z,17.79
2023-05-05T10:47:58.368Z,17.79
2023-05-05T10:50:24.521Z,17.79
2023-05-05T10:52:50.621Z,17.81
2023-05-05T10:55:16.723Z,17.81
2023-05-05T10:57:42.829Z,17.82
2023-05-05T11:00:09.158Z,17.82
2023-05-05T11:02:35.504Z,17.83
2023-05-05T11:05:02.163Z,17.82
2023-05-05T11:07:28.283Z,17.84
2023-05-05T11:09:54.394Z,17.84
2023-05-05T11:12:20.546Z,17.84
2023-05-05T11:14:46.646Z,17.85
2023-05-05T11:17:12.738Z,17.85
2023-05-05T11:19:38.857Z,17.85
2023-05-05T11:22:04.951Z,17.87
2023-05-05T11:24:31.055Z,17.88
2023-05-05T11:26:59.889Z,17.88
2023-05-05T11:29:36.764Z,17.89
2023-05-05T11:32:02.901Z,17.88
2023-05-05T11:34:29.211Z,17.90
2023-05-05T11:36:56.361Z,17.91
2023-05-05T11:39:22.611Z,17.91
2023-05-05T11:41:48.925Z,17.91
2023-05-05T11:44:18.714Z,17.91
2023-05-05T11:46:44.926Z,17.93
2023-05-05T11:49:11.063Z,17.93
2023-05-05T11:51:37.160Z,17.94
2023-05-05T11:54:03.305Z,17.95
2023-05-05T11:56:29.804Z,17.95
2023-05-05T11:58:55.908Z,17.96
2023-05-05T12:01:22.013Z,17.95
2023-05-05T12:03:48.215Z,17.95
2023-05-05T12:06:14.441Z,17.96
2023-05-05T12:08:40.692Z,17.96
2023-05-05T12:11:06.856Z,17.97
2023-05-05T12:13:32.954Z,17.97
2023-05-05T12:15:59.107Z,17.98
2023-05-05T12:18:25.218Z,17.98
2023-05-05T12:20:51.331Z,17.99
2023-05-05T12:23:17.458Z,18.00
2023-05-05T12:25:43.578Z,18.00
2023-05-05T12:28:09.779Z,18.01
2023-05-05T12:30:36.004Z,18.01
2023-05-05T12:33:02.262Z,18.01
2023-05-05T12:35:28.407Z,18.02
2023-05-05T12:37:54.512Z,18.02
2023-05-05T12:40:20.613Z,18.02
2023-05-05T12:42:47.277Z,18.03
2023-05-05T12:45:13.473Z,18.04
2023-05-05T12:47:39.600Z,18.05
2023-05-05T12:50:05.786Z,18.04
2023-05-05T12:52:32.424Z,18.06
2023-05-05T12:54:58.520Z,18.05
2023-05-05T12:57:24.648Z,18.06
2023-05-05T12:59:50.778Z,18.07
2023-05-05T13:02:16.926Z,18.08
2023-05-05T13:04:43.069Z,18.08
2023-05-05T13:07:09.189Z,18.08
2023-05-05T13:09:35.292Z,18.09
2023-05-05T13:12:01.390Z,18.11
2023-05-05T13:14:27.503Z,18.10
2023-05-05T13:16:53.620Z,18.10
2023-05-05T13:19:19.755Z,18.11
2023-05-05T13:21:45.883Z,18.10
2023-05-05T13:24:28.118Z,18.10
2023-05-05T13:26:57.566Z,18.11
2023-05-05T13:29:27.259Z,18.10
2023-05-05T13:31:55.790Z,18.10
2023-05-05T13:34:22.163Z,18.11
2023-05-05T13:36:48.324Z,18.10
2023-05-05T13:39:14.421Z,18.10
2023-05-05T13:41:40.544Z,18.10
2023-05-05T13:44:06.637Z,18.10
2023-05-05T13:46:32.763Z,18.10
2023-05-05T13:49:01.700Z,18.10
2023-05-05T13:51:27.825Z,18.10
2023-05-05T13:53:53.943Z,18.12
2023-05-05T13:56:20.212Z,18.12
2023-05-05T13:58:46.322Z,18.12
2023-05-05T14:01:12.452Z,18.12
2023-05-05T14:03:38.607Z,18.12
2023-05-05T14:06:04.731Z,18.12
2023-05-05T14:08:30.821Z,18.12
2023-05-05T14:10:57.047Z,18.13
2023-05-05T14:13:23.157Z,18.13
2023-05-05T14:15:49.269Z,18.13
2023-05-05T14:18:15.365Z,18.13
2023-05-05T14:20:41.446Z,18.13
2023-05-05T14:23:07.548Z,18.13
2023-05-05T14:25:33.666Z,18.13
2023-05-05T14:27:59.760Z,18.13
2023-05-05T14:30:25.872Z,18.12
2023-05-05T14:32:52.186Z,18.13
2023-05-05T14:35:18.373Z,18.14
2023-05-05T14:37:44.468Z,18.14
2023-05-05T14:40:10.678Z,18.13
2023-05-05T14:42:36.775Z,18.13
2023-05-05T14:45:02.890Z,18.14
2023-05-05T14:47:29.039Z,18.13
2023-05-05T14:49:55.147Z,18.14
2023-05-05T14:52:21.235Z,18.13
2023-05-05T14:54:50.191Z,18.13
2023-05-05T14:57:16.294Z,18.12
2023-05-05T14:59:42.420Z,18.13
2023-05-05T15:02:08.545Z,18.13
2023-05-05T15:04:34.644Z,18.13
2023-05-05T15:07:00.753Z,18.13
2023-05-05T15:09:26.860Z,18.13
2023-05-05T15:11:52.938Z,18.12
2023-05-05T15:14:19.038Z,18.13
2023-05-05T15:16:45.646Z,18.12
2023-05-05T15:19:11.734Z,18.11
2023-05-05T15:21:37.840Z,18.13
2023-05-05T15:24:03.946Z,18.13
2023-05-05T15:26:30.042Z,18.13
2023-05-05T15:28:56.140Z,18.13
2023-05-05T15:31:22.339Z,18.14
2023-05-05T15:33:48.504Z,18.14
2023-05-05T15:36:14.596Z,18.14
2023-05-05T15:38:40.867Z,18.13
2023-05-05T15:41:06.980Z,18.14
2023-05-05T15:43:33.079Z,18.14
2023-05-05T15:45:59.197Z,18.13
2023-05-05T15:48:25.285Z,18.13
2023-05-05T15:50:51.572Z,18.13
2023-05-05T15:53:17.700Z,18.13
2023-05-05T15:55:43.805Z,18.12
2023-05-05T15:58:09.938Z,18.13
2023-05-05T16:00:36.240Z,18.13
2023-05-05T16:03:02.496Z,18.12
2023-05-05T16:05:28.671Z,18.12
2023-05-05T16:07:54.785Z,18.12
2023-05-05T16:10:20.910Z,18.13
2023-05-05T16:12:47.064Z,18.13
2023-05-05T16:15:13.187Z,18.14
2023-05-05T16:17:39.288Z,18.13
2023-05-05T16:20:05.421Z,18.14
2023-05-05T16:22:31.552Z,18.14
2023-05-05T16:24:57.668Z,18.14
2023-05-05T16:27:23.765Z,18.14
2023-05-05T16:29:49.919Z,18.13
2023-05-05T16:32:16.039Z,18.15
2023-05-05T16:34:42.164Z,18.13
2023-05-05T16:37:08.304Z,18.13
2023-05-05T16:39:34.453Z,18.13
2023-05-05T16:42:01.998Z,18.14
2023-05-05T16:44:28.141Z,18.14
2023-05-05T16:46:54.302Z,18.13
2023-05-05T16:49:20.423Z,18.14
2023-05-05T16:51:46.540Z,18.13
2023-05-05T16:54:12.644Z,18.13
2023-05-05T16:56:38.738Z,18.12
2023-05-05T16:59:04.877Z,18.13
2023-05-05T17:01:31.109Z,18.13
2023-05-05T17:03:57.234Z,18.12
2023-05-05T17:06:23.375Z,18.12
2023-05-05T17:08:49.517Z,18.12
2023-05-05T17:11:15.618Z,18.12
2023-05-05T17:13:41.835Z,18.12
2023-05-05T17:16:08.014Z,18.12
2023-05-05T17:18:34.277Z,18.12
2023-05-05T17:21:00.539Z,18.11
2023-05-05T17:23:26.629Z,18.11
2023-05-05T17:25:54.043Z,18.12
2023-05-05T17:28:20.199Z,18.12
2023-05-05T17:30:46.314Z,18.12
2023-05-05T17:33:12.446Z,18.12
2023-05-05T17:35:38.571Z,18.11
2023-05-05T17:38:04.696Z,18.11
2023-05-05T17:40:30.811Z,18.12
2023-05-05T17:42:56.917Z,18.11
2023-05-05T17:45:23.018Z,18.10
2023-05-05T17:47:49.224Z,18.10
2023-05-05T17:50:15.399Z,18.10
2023-05-05T17:52:41.503Z,18.11
2023-05-05T17:55:07.949Z,18.10
2023-05-05T17:57:34.271Z,18.10
2023-05-05T18:00:00.366Z,18.09
2023-05-05T18:02:26.534Z,18.10
2023-05-05T18:04:52.689Z,18.10
2023-05-05T18:07:18.794Z,18.10
2023-05-05T18:09:44.885Z,18.10
2023-05-05T18:12:10.997Z,18.10
2023-05-05T18:14:37.101Z,18.09
2023-05-05T18:17:03.216Z,18.09
2023-05-05T18:19:29.358Z,18.09
2023-05-05T18:21:55.688Z,18.09
2023-05-05T18:24:21.797Z,18.09
2023-05-05T18:26:47.960Z,18.08
2023-05-05T18:29:14.037Z,18.09
2023-05-05T18:31:40.196Z,18.07
2023-05-05T18:34:06.356Z,18.08
2023-05-05T18:36:32.452Z,18.09
2023-05-05T18:38:58.571Z,18.09
2023-05-05T18:41:24.674Z,18.08
2023-05-05T18:43:50.788Z,18.09
2023-05-05T18:46:16.914Z,18.08
2023-05-05T18:48:43.060Z,18.06
2023-05-05T18:51:09.149Z,18.07
2023-05-05T18:53:35.239Z,18.07
2023-05-05T18:56:01.351Z,18.07
2023-05-05T18:58:27.454Z,18.07
2023-05-05T19:00:53.575Z,18.08
2023-05-05T19:03:19.759Z,18.07
2023-05-05T19:05:45.868Z,18.07
2023-05-05T19:08:11.983Z,18.06
2023-05-05T19:10:38.150Z,18.06
2023-05-05T19:13:04.346Z,18.06
2023-05-05T19:15:30.516Z,18.07
2023-05-05T19:17:56.694Z,18.06
2023-05-05T19:20:22.804Z,18.06
2023-05-05T19:22:48.893Z,18.05
2023-05-05T19:25:15.023Z,18.05
2023-05-05T19:27:41.116Z,18.05
2023-05-05T19:30:07.284Z,18.05
2023-05-05T19:32:33.415Z,18.06
2023-05-05T19:34:59.530Z,18.05
2023-05-05T19:37:25.629Z,18.05
2023-05-05T19:39:51.797Z,18.05
2023-05-05T19:42:17.896Z,18.05
2023-05-05T19:44:43.996Z,18.04
2023-05-05T19:47:11.235Z,18.04
2023-05-05T19:49:37.410Z,18.04
2023-05-05T19:52:03.503Z,18.05
2023-05-05T19:54:29.631Z,18.04
2023-05-05T19:56:57.182Z,18.05
2023-05-05T19:59:23.611Z,18.04
2023-05-05T20:01:49.813Z,18.05
2023-05-05T20:04:15.946Z,18.04
2023-05-05T20:06:42.068Z,18.04
2023-05-05T20:09:08.166Z,18.04
2023-05-05T20:11:34.310Z,18.04
2023-05-05T20:14:00.423Z,18.04
2023-05-05T20:16:26.649Z,18.03
2023-05-05T20:18:52.843Z,18.03
2023-05-05T20:21:18.970Z,18.04
2023-05-05T20:23:45.141Z,18.03
2023-05-05T20:26:11.304Z,18.03
2023-05-05T20:28:37.414Z,18.02
2023-05-05T20:31:03.663Z,18.02
2023-05-05T20:33:29.806Z,18.02
2023-05-05T20:35:55.935Z,18.02
2023-05-05T20:38:22.054Z,18.02
2023-05-05T20:40:48.169Z,18.02
2023-05-05T20:43:14.272Z,18.01
2023-05-05T20:45:40.390Z,18.02
2023-05-05T20:48:06.486Z,18.01
2023-05-05T20:50:32.629Z,18.02
2023-05-05T20:52:58.783Z,18.01
2023-05-05T20:55:24.890Z,18.01
2023-05-05T20:57:51.010Z,18.00
2023-05-05T21:00:17.130Z,18.00
2023-05-05T21:02:43.400Z,18.01
2023-05-05T21:05:09.612Z,18.01
2023-05-05T21:07:35.831Z,18.01
2023-05-05T21:10:01.962Z,18.00
2023-05-05T21:12:28.102Z,18.00
2023-05-05T21:14:55.149Z,18.00
2023-05-05T21:17:21.287Z,18.00
2023-05-05T21:19:47.410Z,18.00
2023-05-05T21:22:13.514Z,18.00
2023-05-05T21:24:39.616Z,18.00
2023-05-05T21:27:05.711Z,17.99
2023-05-05T21:29:31.842Z,18.00
2023-05-05T21:31:58.015Z,17.99
2023-05-05T21:34:24.179Z,17.98
2023-05-05T21:36:50.816Z,17.98
2023-05-05T21:39:16.905Z,17.99
2023-05-05T21:41:42.999Z,17.98
2023-05-05T21:44:09.103Z,17.98
2023-05-05T21:46:35.279Z,17.98
2023-05-05T21:49:01.375Z,17.98
2023-05-05T21:51:27.628Z,17.97
2023-05-05T21:53:53.713Z,17.97
2023-05-05T21:56:19.806Z,17.97
2023-05-05T21:58:45.909Z,17.97
2023-05-05T22:01:12.101Z,17.97
2023-05-05T22:03:38.413Z,17.96
2023-05-05T22:06:04.583Z,17.97
2023-05-05T22:08:30.693Z,17.96
2023-05-05T22:10:56.791Z,17.96
2023-05-05T22:13:22.941Z,17.96
2023-05-05T22:15:49.153Z,17.96
2023-05-05T22:18:15.325Z,17.96
2023-05-05T22:20:41.593Z,17.95
2023-05-05T22:23:07.679Z,17.95
2023-05-05T22:25:33.793Z,17.95
2023-05-05T22:27:59.899Z,17.94
2023-05-05T22:30:25.980Z,17.95
2023-05-05T22:32:52.185Z,17.94
2023-05-05T22:35:18.351Z,17.94
2023-05-05T22:37:44.477Z,17.94
2023-05-05T22:40:10.565Z,17.94
2023-05-05T22:42:36.753Z,17.94
2023-05-05T22:45:02.847Z,17.94
2023-05-05T22:47:29.038Z,17.93
2023-05-05T22:49:55.223Z,17.93
2023-05-05T22:52:21.331Z,17.93
2023-05-05T22:54:47.418Z,17.92
2023-05-05T22:57:13.582Z,17.93
2023-05-05T22:59:39.670Z,17.92
2023-05-05T23:02:05.780Z,17.92
2023-05-05T23:04:31.924Z,17.91
2023-05-05T23:06:58.061Z,17.91
2023-05-05T23:09:24.215Z,17.92
2023-05-05T23:11:50.337Z,17.91
2023-05-05T23:14:16.437Z,17.90
2023-05-05T23:16:42.585Z,17.90
2023-05-05T23:19:08.765Z,17.90
2023-05-05T23:21:45.250Z,17.90
2023-05-05T23:24:18.499Z,17.90
2023-05-05T23:26:44.578Z,17.88
2023-05-05T23:29:10.695Z,17.89
2023-05-05T23:31:36.802Z,17.89
2023-05-05T23:34:02.916Z,17.88
2023-05-05T23:36:29.029Z,17.88
2023-05-05T23:38:55.159Z,17.87
2023-05-05T23:41:21.252Z,17.88
2023-05-05T23:43:47.371Z,17.88
2023-05-05T23:46:13.993Z,17.86
2023-05-05T23:48:40.179Z,17.86
2023-05-05T23:51:06.288Z,17.86
2023-05-05T23:53:32.401Z,17.86
2023-05-05T23:55:58.569Z,17.86
2023-05-05T23:58:24.864Z,17.85
